createdAt,value
2023-05-10T00:01:45.244Z,78.01
2023-05-10T00:04:11.574Z,78.94
2023-05-10T00:06:37.931Z,78.35
2023-05-10T00:09:04.225Z,81.02
2023-05-10T00:11:30.519Z,80.04
2023-05-10T00:13:56.834Z,80.51
2023-05-10T00:16:23.140Z,81.36
2023-05-10T00:18:49.479Z,81.47
2023-05-10T00:21:15.794Z,79.81
2023-05-10T00:23:42.099Z,80.68
2023-05-10T00:26:08.415Z,81.51
2023-05-10T00:28:34.726Z,81.29
2023-05-10T00:31:01.005Z,81.85
2023-05-10T00:33:27.297Z,81.76
2023-05-10T00:36:02.632Z,80.45
2023-05-10T00:38:28.945Z,80.93
2023-05-10T00:40:55.288Z,81.45
2023-05-10T00:43:21.596Z,82.98
2023-05-10T00:45:47.953Z,84.15
2023-05-10T00:48:14.344Z,83.94
2023-05-10T00:50:40.633Z,83.88
2023-05-10T00:53:06.916Z,82.08
2023-05-10T00:55:33.212Z,81.93
2023-05-10T00:57:59.611Z,82.00
2023-05-10T01:00:25.911Z,82.31
2023-05-10T01:02:52.326Z,82.05
2023-05-10T01:05:18.772Z,81.75
2023-05-10T01:07:45.217Z,82.18
2023-05-10T01:10:11.585Z,82.28
2023-05-10T01:12:37.945Z,84.06
2023-05-10T01:15:04.280Z,83.93
2023-05-10T01:17:30.612Z,83.53
2023-05-10T01:19:56.933Z,85.12
2023-05-10T01:22:23.224Z,84.25
2023-05-10T01:24:49.530Z,82.36
2023-05-10T01:27:15.827Z,83.39
2023-05-10T01:29:42.134Z,83.78
2023-05-10T01:32:08.447Z,83.18
2023-05-10T01:34:34.748Z,82.87
2023-05-10T01:37:01.046Z,81.74
2023-05-10T01:39:27.368Z,81.55
2023-05-10T01:41:53.653Z,83.86
2023-05-10T01:44:19.929Z,85.24
2023-05-10T01:46:46.316Z,85.35
2023-05-10T01:49:12.650Z,85.60
2023-05-10T01:51:38.987Z,84.40
2023-05-10T01:54:05.345Z,84.77
2023-05-10T01:56:31.632Z,82.56
2023-05-10T01:58:57.951Z,82.23
2023-05-10T02:01:24.317Z,80.72
2023-05-10T02:03:50.673Z,81.00
2023-05-10T02:06:17.081Z,83.03
2023-05-10T02:08:43.398Z,82.98
2023-05-10T02:11:09.680Z,81.99
2023-05-10T02:13:35.978Z,82.26
2023-05-10T02:16:02.293Z,83.07
2023-05-10T02:18:28.587Z,83.78
2023-05-10T02:20:54.893Z,83.93
2023-05-10T02:23:21.217Z,83.15
2023-05-10T02:25:47.518Z,82.86
2023-05-10T02:28:13.816Z,82.51
2023-05-10T02:30:40.142Z,83.18
2023-05-10T02:33:06.467Z,84.56
2023-05-10T02:35:32.793Z,84.30
2023-05-10T02:37:59.115Z,83.41
2023-05-10T02:40:28.032Z,81.15
2023-05-10T02:42:55.032Z,82.21
2023-05-10T02:45:21.353Z,82.43
2023-05-10T02:47:47.679Z,84.68
2023-05-10T02:50:14.207Z,85.63
2023-05-10T02:52:40.827Z,84.37
2023-05-10T02:55:07.162Z,83.80
2023-05-10T02:57:33.460Z,82.77
2023-05-10T02:59:59.807Z,82.11
2023-05-10T03:02:26.172Z,80.64
2023-05-10T03:04:52.516Z,81.07
2023-05-10T03:07:18.833Z,82.38
2023-05-10T03:09:45.140Z,81.89
2023-05-10T03:12:11.443Z,80.79
2023-05-10T03:14:37.737Z,78.83
2023-05-10T03:17:04.024Z,80.09
2023-05-10T03:19:30.316Z,79.80
2023-05-10T03:21:56.630Z,80.03
2023-05-10T03:24:22.911Z,82.46
2023-05-10T03:26:49.208Z,82.69
2023-05-10T03:29:15.540Z,82.62
2023-05-10T03:31:41.905Z,81.25
2023-05-10T03:34:08.273Z,79.42
2023-05-10T03:36:34.620Z,79.70
2023-05-10T03:39:00.910Z,79.27
2023-05-10T03:41:27.199Z,77.77
2023-05-10T03:43:53.516Z,77.59
2023-05-10T03:46:19.821Z,76.77
2023-05-10T03:48:46.141Z,78.00
2023-05-10T03:51:12.490Z,79.26
2023-05-10T03:53:38.784Z,79.13
2023-05-10T03:56:05.075Z,80.49
2023-05-10T03:58:31.499Z,80.54
2023-05-10T04:00:57.795Z,82.26
2023-05-10T04:03:24.240Z,81.12
2023-05-10T04:05:50.680Z,80.57
2023-05-10T04:08:17.019Z,81.05
2023-05-10T04:10:43.298Z,81.97
2023-05-10T04:13:09.707Z,82.04
2023-05-10T04:15:36.028Z,82.83
2023-05-10T04:18:02.385Z,82.40
2023-05-10T04:20:28.735Z,82.23
2023-05-10T04:22:55.046Z,83.22
2023-05-10T04:25:21.361Z,83.62
2023-05-10T04:27:47.679Z,83.84
2023-05-10T04:30:14.121Z,82.92
2023-05-10T04:32:40.576Z,82.58
2023-05-10T04:35:06.924Z,82.93
2023-05-10T04:37:33.224Z,83.52
2023-05-10T04:39:59.527Z,84.21
2023-05-10T04:42:25.844Z,84.53
2023-05-10T04:44:52.136Z,83.71
2023-05-10T04:47:18.433Z,84.38
2023-05-10T04:49:44.743Z,83.46
2023-05-10T04:52:11.039Z,84.65
2023-05-10T04:54:37.346Z,84.96
2023-05-10T04:57:03.665Z,84.96
2023-05-10T04:59:29.953Z,85.41
2023-05-10T05:01:56.303Z,84.75
2023-05-10T05:04:22.662Z,84.77
2023-05-10T05:06:48.972Z,85.78
2023-05-10T05:09:15.460Z,86.25
2023-05-10T05:11:41.841Z,86.41
2023-05-10T05:14:08.127Z,86.26
2023-05-10T05:16:34.477Z,85.31
2023-05-10T05:19:00.847Z,84.93
2023-05-10T05:21:27.145Z,85.36
2023-05-10T05:23:53.437Z,84.91
2023-05-10T05:26:19.787Z,86.52
2023-05-10T05:28:46.081Z,86.49
2023-05-10T05:31:12.407Z,86.78
2023-05-10T05:33:38.745Z,87.27
2023-05-10T05:36:05.040Z,86.81
2023-05-10T05:38:31.359Z,87.49
2023-05-10T05:40:57.699Z,87.12
2023-05-10T05:43:24.012Z,86.58
2023-05-10T05:45:50.337Z,83.97
2023-05-10T05:48:16.696Z,80.39
2023-05-10T05:50:43.008Z,81.43
2023-05-10T05:53:09.350Z,82.30
2023-05-10T05:55:35.674Z,81.57
2023-05-10T05:58:01.975Z,82.26
2023-05-10T06:00:28.309Z,82.97
2023-05-10T06:02:54.700Z,82.09
2023-05-10T06:05:21.167Z,83.05
2023-05-10T06:07:47.560Z,82.37
2023-05-10T06:10:13.880Z,80.68
2023-05-10T06:12:40.261Z,80.85
2023-05-10T06:15:06.571Z,79.35
2023-05-10T06:17:32.995Z,81.60
2023-05-10T06:19:59.292Z,82.04
2023-05-10T06:22:25.594Z,79.37
2023-05-10T06:24:51.909Z,79.74
2023-05-10T06:27:18.213Z,78.80
2023-05-10T06:29:44.495Z,78.84
2023-05-10T06:32:10.796Z,76.78
2023-05-10T06:34:37.088Z,74.41
2023-05-10T06:37:03.382Z,73.18
2023-05-10T06:39:29.718Z,70.24
2023-05-10T06:41:56.009Z,70.94
2023-05-10T06:44:22.289Z,68.89
2023-05-10T06:46:48.704Z,70.43
2023-05-10T06:49:15.013Z,68.33
2023-05-10T06:51:41.301Z,70.62
2023-05-10T06:54:07.623Z,69.28
2023-05-10T06:56:33.918Z,72.89
2023-05-10T06:59:00.377Z,75.24
2023-05-10T07:01:26.827Z,66.79
2023-05-10T07:03:53.204Z,65.92
2023-05-10T07:06:32.340Z,65.11
2023-05-10T07:08:59.924Z,65.33
2023-05-10T07:11:26.205Z,66.34
2023-05-10T07:13:52.491Z,66.29
2023-05-10T07:16:18.977Z,64.55
2023-05-10T07:18:45.334Z,63.91
2023-05-10T07:21:11.680Z,63.21
2023-05-10T07:23:38.053Z,61.28
2023-05-10T07:26:04.348Z,62.28
2023-05-10T07:28:30.704Z,62.31
2023-05-10T07:30:57.037Z,63.36
2023-05-10T07:33:23.369Z,63.49
2023-05-10T07:35:49.674Z,59.95
2023-05-10T07:38:15.998Z,61.62
2023-05-10T07:40:42.295Z,62.03
2023-05-10T07:43:08.594Z,60.82
2023-05-10T07:45:34.994Z,58.15
2023-05-10T07:48:01.448Z,60.83
2023-05-10T07:50:27.771Z,60.57
2023-05-10T07:52:54.091Z,58.73
2023-05-10T07:55:20.378Z,57.91
2023-05-10T07:57:46.682Z,58.83
2023-05-10T08:00:13.007Z,60.20
2023-05-10T08:02:39.429Z,56.71
2023-05-10T08:05:05.808Z,57.68
2023-05-10T08:07:32.107Z,56.83
2023-05-10T08:09:58.393Z,57.72
2023-05-10T08:12:24.676Z,58.31
2023-05-10T08:14:50.981Z,58.13
2023-05-10T08:17:19.283Z,58.36
2023-05-10T08:19:46.194Z,57.66
2023-05-10T08:22:12.500Z,55.31
2023-05-10T08:24:38.818Z,55.52
2023-05-10T08:27:05.111Z,54.95
2023-05-10T08:29:38.666Z,58.29
2023-05-10T08:32:15.847Z,56.01
2023-05-10T08:34:42.320Z,54.04
2023-05-10T08:37:08.626Z,57.84
2023-05-10T08:39:35.059Z,55.61
2023-05-10T08:42:01.370Z,53.92
2023-05-10T08:44:27.783Z,51.58
2023-05-10T08:46:54.255Z,56.48
2023-05-10T08:49:20.621Z,55.97
2023-05-10T08:51:46.916Z,52.14
2023-05-10T08:54:13.216Z,51.19
2023-05-10T08:56:39.583Z,51.68
2023-05-10T08:59:05.959Z,51.91
2023-05-10T09:01:32.330Z,52.70
2023-05-10T09:03:58.750Z,50.39
2023-05-10T09:06:25.103Z,51.24
2023-05-10T09:08:51.504Z,52.16
2023-05-10T09:11:17.809Z,52.79
2023-05-10T09:13:44.107Z,53.95
2023-05-10T09:16:20.952Z,53.98
2023-05-10T09:18:47.867Z,51.89
2023-05-10T09:21:14.221Z,51.29
2023-05-10T09:23:40.509Z,50.90
2023-05-10T09:26:06.825Z,50.43
2023-05-10T09:28:33.135Z,52.34
2023-05-10T09:30:59.492Z,53.06
2023-05-10T09:33:25.867Z,51.81
2023-05-10T09:35:52.153Z,54.32
2023-05-10T09:38:18.458Z,50.43
2023-05-10T09:40:44.780Z,51.04
2023-05-10T09:43:11.075Z,50.13
2023-05-10T09:45:38.965Z,49.13
2023-05-10T09:48:05.727Z,49.08
2023-05-10T09:50:32.085Z,50.96
2023-05-10T09:52:58.396Z,47.96
2023-05-10T09:55:24.726Z,47.49
2023-05-10T09:57:51.063Z,47.78
2023-05-10T10:00:17.355Z,50.18
2023-05-10T10:02:43.719Z,47.26
2023-05-10T10:05:10.224Z,49.79
2023-05-10T10:07:36.694Z,49.76
2023-05-10T10:10:03.018Z,46.18
2023-05-10T10:12:29.340Z,48.25
2023-05-10T10:14:55.637Z,47.18
2023-05-10T10:17:22.001Z,47.33
2023-05-10T10:19:48.319Z,46.07
2023-05-10T10:22:14.623Z,43.06
2023-05-10T10:24:40.948Z,46.69
2023-05-10T10:27:07.247Z,45.27
2023-05-10T10:29:33.551Z,41.17
2023-05-10T10:31:59.915Z,40.80
2023-05-10T10:34:26.247Z,41.20
2023-05-10T10:36:52.544Z,41.65
2023-05-10T10:39:18.909Z,42.20
2023-05-10T10:41:45.207Z,43.12
2023-05-10T10:44:11.522Z,43.20
2023-05-10T10:46:37.870Z,43.72
2023-05-10T10:49:04.193Z,46.00
2023-05-10T10:51:30.492Z,43.79
2023-05-10T10:53:56.807Z,42.45
2023-05-10T10:56:23.102Z,44.94
2023-05-10T10:58:49.398Z,43.82
2023-05-10T11:01:15.798Z,40.15
2023-05-10T11:03:42.179Z,40.97
2023-05-10T11:06:08.488Z,40.84
2023-05-10T11:08:36.405Z,41.42
2023-05-10T11:11:04.591Z,39.93
2023-05-10T11:13:30.937Z,41.59
2023-05-10T11:15:57.252Z,42.50
2023-05-10T11:18:23.587Z,42.80
2023-05-10T11:20:49.897Z,44.16
2023-05-10T11:23:16.214Z,43.16
2023-05-10T11:25:42.519Z,46.24
2023-05-10T11:28:08.988Z,43.40
2023-05-10T11:30:35.315Z,44.82
2023-05-10T11:33:01.644Z,43.66
2023-05-10T11:35:27.965Z,44.51
2023-05-10T11:37:54.285Z,47.61
2023-05-10T11:40:20.567Z,45.12
2023-05-10T11:42:46.863Z,43.81
2023-05-10T11:45:13.236Z,47.29
2023-05-10T11:47:40.833Z,43.30
2023-05-10T11:50:08.939Z,44.27
2023-05-10T11:52:35.264Z,44.18
2023-05-10T11:55:01.569Z,44.38
2023-05-10T11:57:27.885Z,47.44
2023-05-10T11:59:54.193Z,44.32
2023-05-10T12:02:20.921Z,43.63
2023-05-10T12:04:47.392Z,45.95
2023-05-10T12:07:13.715Z,45.20
2023-05-10T12:09:44.068Z,44.26
2023-05-10T12:12:10.807Z,48.25
2023-05-10T12:14:37.134Z,46.51
2023-05-10T12:17:03.431Z,43.96
2023-05-10T12:19:29.775Z,45.14
2023-05-10T12:21:56.099Z,43.90
2023-05-10T12:24:22.391Z,45.13
2023-05-10T12:26:49.624Z,44.95
2023-05-10T12:29:15.936Z,43.57
2023-05-10T12:31:42.313Z,43.69
2023-05-10T12:34:10.178Z,43.75
2023-05-10T12:36:36.494Z,43.54
2023-05-10T12:39:02.786Z,46.50
2023-05-10T12:41:29.073Z,44.80
2023-05-10T12:43:55.386Z,44.14
2023-05-10T12:46:21.761Z,42.90
2023-05-10T12:48:48.123Z,42.63
2023-05-10T12:51:14.469Z,46.05
2023-05-10T12:53:43.374Z,42.66
2023-05-10T12:56:10.992Z,43.73
2023-05-10T12:58:37.339Z,46.70
2023-05-10T13:01:03.734Z,48.49
2023-05-10T13:03:30.139Z,49.73
2023-05-10T13:05:56.439Z,45.83
2023-05-10T13:08:22.752Z,46.17
2023-05-10T13:10:49.052Z,44.20
2023-05-10T13:13:15.378Z,44.76
2023-05-10T13:15:41.672Z,46.05
2023-05-10T13:18:08.046Z,44.89
2023-05-10T13:20:36.118Z,44.72
2023-05-10T13:23:02.715Z,46.44
2023-05-10T13:25:29.022Z,45.84
2023-05-10T13:27:55.340Z,47.17
2023-05-10T13:30:21.617Z,47.28
2023-05-10T13:32:47.950Z,46.68
2023-05-10T13:35:14.291Z,46.65
2023-05-10T13:37:40.588Z,45.80
2023-05-10T13:40:06.888Z,47.07
2023-05-10T13:42:33.199Z,46.46
2023-05-10T13:44:59.509Z,46.51
2023-05-10T13:47:25.837Z,47.96
2023-05-10T13:49:52.169Z,45.66
2023-05-10T13:52:18.449Z,45.90
2023-05-10T13:54:44.759Z,45.52
2023-05-10T13:57:11.116Z,47.01
2023-05-10T13:59:37.418Z,45.79
2023-05-10T14:02:03.848Z,47.61
2023-05-10T14:04:30.182Z,47.99
2023-05-10T14:06:56.475Z,45.58
2023-05-10T14:09:22.762Z,46.99
2023-05-10T14:11:49.077Z,47.93
2023-05-10T14:14:15.365Z,46.98
2023-05-10T14:16:41.736Z,48.81
2023-05-10T14:19:08.240Z,46.67
2023-05-10T14:21:34.629Z,47.49
2023-05-10T14:24:00.936Z,45.92
2023-05-10T14:26:27.255Z,46.58
2023-05-10T14:28:53.636Z,46.99
2023-05-10T14:31:20.056Z,47.42
2023-05-10T14:33:46.412Z,46.89
2023-05-10T14:36:12.711Z,46.46
2023-05-10T14:38:38.999Z,47.85
2023-05-10T14:41:05.322Z,48.09
2023-05-10T14:43:31.620Z,47.21
2023-05-10T14:45:57.934Z,44.96
2023-05-10T14:48:24.285Z,47.19
2023-05-10T14:50:50.586Z,47.19
2023-05-10T14:53:16.892Z,47.97
2023-05-10T14:55:43.214Z,46.23
2023-05-10T14:58:09.521Z,46.97
2023-05-10T15:00:35.823Z,47.36
2023-05-10T15:03:03.081Z,47.27
2023-05-10T15:05:29.875Z,47.50
2023-05-10T15:07:56.507Z,47.99
2023-05-10T15:10:22.828Z,46.68
2023-05-10T15:12:49.123Z,47.01
2023-05-10T15:15:15.697Z,46.84
2023-05-10T15:17:42.174Z,47.77
2023-05-10T15:20:08.495Z,47.63
2023-05-10T15:22:34.785Z,47.25
2023-05-10T15:25:01.114Z,48.00
2023-05-10T15:27:27.418Z,46.71
2023-05-10T15:29:53.715Z,46.56
2023-05-10T15:32:20.780Z,46.87
2023-05-10T15:34:47.117Z,48.28
2023-05-10T15:37:15.503Z,47.57
2023-05-10T15:39:41.974Z,48.12
2023-05-10T15:42:08.353Z,47.50
2023-05-10T15:44:34.646Z,47.50
2023-05-10T15:47:00.998Z,49.68
2023-05-10T15:49:27.340Z,48.83
2023-05-10T15:51:53.635Z,49.13
2023-05-10T15:54:19.945Z,48.51
2023-05-10T15:56:46.247Z,49.22
2023-05-10T15:59:12.558Z,49.15
2023-05-10T16:01:38.875Z,50.51
2023-05-10T16:04:05.354Z,49.66
2023-05-10T16:06:31.647Z,49.18
2023-05-10T16:08:58.014Z,48.24
2023-05-10T16:11:24.321Z,48.29
2023-05-10T16:13:50.641Z,49.40
2023-05-10T16:16:17.104Z,49.30
2023-05-10T16:18:43.750Z,48.61
2023-05-10T16:21:10.121Z,48.92
2023-05-10T16:23:36.435Z,49.97
2023-05-10T16:26:04.279Z,51.97
2023-05-10T16:28:30.573Z,53.03
2023-05-10T16:30:56.943Z,52.11
2023-05-10T16:33:23.248Z,52.67
2023-05-10T16:35:49.552Z,52.96
2023-05-10T16:38:15.868Z,52.92
2023-05-10T16:40:42.173Z,52.65
2023-05-10T16:43:08.486Z,52.15
2023-05-10T16:45:34.815Z,53.14
2023-05-10T16:48:01.244Z,52.08
2023-05-10T16:50:27.536Z,50.64
2023-05-10T16:52:53.840Z,51.49
2023-05-10T16:55:20.130Z,53.85
2023-05-10T16:57:46.442Z,53.92
2023-05-10T17:00:12.776Z,53.04
2023-05-10T17:02:39.162Z,53.49
2023-05-10T17:05:05.526Z,53.82
2023-05-10T17:07:31.839Z,55.71
2023-05-10T17:09:58.144Z,54.77
2023-05-10T17:12:24.443Z,54.95
2023-05-10T17:14:50.806Z,55.50
2023-05-10T17:17:17.106Z,54.34
2023-05-10T17:19:43.390Z,54.72
2023-05-10T17:22:09.704Z,55.44
2023-05-10T17:24:36.066Z,56.09
2023-05-10T17:27:02.360Z,57.06
2023-05-10T17:29:28.689Z,57.29
2023-05-10T17:31:55.038Z,58.43
2023-05-10T17:34:21.382Z,58.26
2023-05-10T17:36:47.697Z,58.41
2023-05-10T17:39:13.982Z,60.35
2023-05-10T17:41:40.278Z,61.67
2023-05-10T17:44:06.591Z,60.79
2023-05-10T17:46:32.872Z,60.51
2023-05-10T17:48:59.170Z,59.29
2023-05-10T17:51:25.512Z,59.77
2023-05-10T17:53:51.809Z,60.08
2023-05-10T17:56:18.112Z,59.78
2023-05-10T17:58:44.430Z,59.14
2023-05-10T18:01:10.750Z,58.67
2023-05-10T18:03:37.067Z,57.67
2023-05-10T18:06:03.441Z,58.28
2023-05-10T18:08:29.796Z,57.99
2023-05-10T18:10:56.094Z,57.74
2023-05-10T18:13:22.405Z,57.23
2023-05-10T18:15:48.700Z,57.45
2023-05-10T18:18:15.178Z,55.99
2023-05-10T18:20:41.897Z,55.49
2023-05-10T18:23:08.210Z,55.73
2023-05-10T18:25:34.528Z,55.96
2023-05-10T18:28:00.982Z,56.26
2023-05-10T18:30:27.287Z,56.56
2023-05-10T18:32:53.619Z,55.75
2023-05-10T18:35:20.198Z,56.19
2023-05-10T18:37:46.731Z,56.15
2023-05-10T18:40:13.036Z,55.69
2023-05-10T18:42:39.364Z,55.41
2023-05-10T18:45:05.696Z,54.49
2023-05-10T18:47:32.005Z,55.21
2023-05-10T18:49:58.308Z,54.28
2023-05-10T18:52:24.625Z,52.70
2023-05-10T18:54:53.696Z,53.81
2023-05-10T18:57:20.007Z,53.45
2023-05-10T18:59:46.306Z,53.28
2023-05-10T19:02:12.725Z,54.48
2023-05-10T19:04:39.110Z,54.67
2023-05-10T19:07:05.415Z,55.32
2023-05-10T19:09:31.713Z,54.37
2023-05-10T19:11:58.014Z,56.46
2023-05-10T19:14:24.302Z,55.86
2023-05-10T19:16:50.598Z,55.65
2023-05-10T19:19:16.907Z,55.35
2023-05-10T19:21:43.265Z,54.71
2023-05-10T19:24:10.696Z,54.89
2023-05-10T19:26:37.260Z,55.50
2023-05-10T19:29:03.570Z,55.89
2023-05-10T19:31:29.951Z,54.74
2023-05-10T19:33:58.058Z,54.95
2023-05-10T19:36:26.890Z,55.78
2023-05-10T19:38:53.193Z,55.26
2023-05-10T19:41:19.718Z,56.44
2023-05-10T19:43:46.014Z,56.81
2023-05-10T19:46:14.311Z,55.54
2023-05-10T19:48:41.026Z,56.19
2023-05-10T19:51:09.430Z,57.62
2023-05-10T19:53:36.605Z,57.95
2023-05-10T19:56:03.241Z,57.26
2023-05-10T19:58:29.531Z,57.74
2023-05-10T20:00:55.867Z,57.35
2023-05-10T20:03:22.234Z,56.09
2023-05-10T20:05:48.546Z,57.07
2023-05-10T20:08:14.905Z,57.47
2023-05-10T20:10:41.214Z,57.29
2023-05-10T20:13:07.538Z,57.14
2023-05-10T20:15:33.835Z,56.62
2023-05-10T20:18:00.264Z,56.83
2023-05-10T20:20:26.592Z,55.23
2023-05-10T20:22:52.909Z,55.54
2023-05-10T20:25:19.212Z,56.45
2023-05-10T20:27:45.503Z,57.78
2023-05-10T20:30:11.811Z,58.24
2023-05-10T20:32:38.198Z,58.31
2023-05-10T20:35:04.531Z,57.16
2023-05-10T20:37:30.848Z,58.27
2023-05-10T20:39:57.157Z,57.76
2023-05-10T20:42:24.982Z,58.88
2023-05-10T20:44:51.275Z,58.25
2023-05-10T20:47:17.596Z,57.92
2023-05-10T20:49:43.996Z,58.85
2023-05-10T20:52:10.293Z,59.93
2023-05-10T20:54:36.625Z,60.17
2023-05-10T20:57:02.918Z,58.90
2023-05-10T20:59:29.220Z,59.26
2023-05-10T21:01:55.655Z,58.53
2023-05-10T21:04:21.993Z,60.63
2023-05-10T21:06:48.302Z,60.50
2023-05-10T21:09:14.636Z,59.27
2023-05-10T21:11:40.929Z,59.55
2023-05-10T21:14:07.229Z,58.23
2023-05-10T21:16:33.627Z,57.05
2023-05-10T21:18:59.983Z,57.97
2023-05-10T21:21:26.727Z,58.76
2023-05-10T21:23:53.097Z,60.21
2023-05-10T21:26:19.559Z,55.93
2023-05-10T21:28:45.892Z,55.78
2023-05-10T21:31:12.317Z,55.75
2023-05-10T21:33:38.680Z,56.81
2023-05-10T21:36:05.013Z,57.71
2023-05-10T21:38:31.386Z,56.40
2023-05-10T21:40:57.676Z,56.54
2023-05-10T21:43:23.976Z,58.21
2023-05-10T21:45:50.313Z,59.00
2023-05-10T21:48:16.614Z,58.76
2023-05-10T21:50:42.969Z,58.22
2023-05-10T21:53:09.280Z,57.15
2023-05-10T21:55:35.574Z,57.47
2023-05-10T21:58:01.878Z,58.37
2023-05-10T22:00:28.189Z,57.62
2023-05-10T22:02:54.588Z,57.90
2023-05-10T22:05:22.042Z,57.21
2023-05-10T22:07:48.361Z,57.61
2023-05-10T22:10:14.691Z,57.91
2023-05-10T22:12:41.016Z,57.26
2023-05-10T22:15:10.522Z,56.97
2023-05-10T22:17:37.374Z,57.07
2023-05-10T22:20:03.683Z,57.50
2023-05-10T22:22:30.330Z,56.52
2023-05-10T22:24:56.625Z,57.98
2023-05-10T22:27:23.040Z,57.59
2023-05-10T22:29:49.349Z,57.16
2023-05-10T22:32:15.660Z,57.03
2023-05-10T22:34:41.949Z,57.82
2023-05-10T22:37:08.947Z,56.85
2023-05-10T22:39:35.241Z,57.03
2023-05-10T22:42:01.548Z,57.38
2023-05-10T22:44:27.894Z,57.86
2023-05-10T22:46:54.242Z,56.91
2023-05-10T22:49:20.559Z,59.40
2023-05-10T22:51:46.879Z,61.87
2023-05-10T22:54:13.180Z,60.99
2023-05-10T22:56:39.460Z,61.80
2023-05-10T22:59:05.789Z,62.32
2023-05-10T23:01:32.122Z,62.65
2023-05-10T23:03:58.451Z,63.22
2023-05-10T23:06:24.768Z,62.28
2023-05-10T23:08:51.048Z,63.22
2023-05-10T23:11:17.362Z,64.94
2023-05-10T23:13:43.670Z,65.62
2023-05-10T23:16:09.987Z,66.68
2023-05-10T23:18:36.341Z,65.03
2023-05-10T23:21:02.668Z,66.38
2023-05-10T23:23:29.005Z,65.21
2023-05-10T23:25:55.537Z,64.80
2023-05-10T23:28:21.907Z,63.01
2023-05-10T23:30:48.215Z,63.13
2023-05-10T23:33:14.538Z,63.12
2023-05-10T23:35:40.841Z,62.16
2023-05-10T23:38:07.128Z,64.07
2023-05-10T23:40:33.419Z,64.11
2023-05-10T23:42:59.722Z,64.59
2023-05-10T23:45:26.122Z,64.11
2023-05-10T23:47:52.543Z,63.54
2023-05-10T23:50:19.080Z,63.74
2023-05-10T23:52:45.574Z,63.66
2023-05-10T23:55:11.878Z,62.36
2023-05-10T23:57:38.192Z,62.22
